KMHL/MHL METAR and TAF weather

Enter ICAO airport designator
Station Type Date Time Source
KMHL METAR 2022/11/30 10:15 UTC NOAA

KMHL 301015Z AUTO 27007KT 10SM CLR M05/M08 A3022 RMK AO2


Station Type Date Time Source
KMHL Decoded METAR 2022/11/30 10:15 UTC NOAA

Station name not available
Nov 30, 2022 - 05:15 AM EST / 2022.11.30 1015 UTC
Wind: from the W (270 degrees) at 8 MPH (7 KT):0
Visibility: 10 mile(s):0
Sky conditions: clear
Temperature: 23 F (-5 C)
Windchill: 14 F (-10 C):1
Dew Point: 17 F (-8 C)
Relative Humidity: 79%
Pressure (altimeter): 30.22 in. Hg (1023 hPa)
ob: KMHL 301015Z AUTO 27007KT 10SM CLR M05/M08 A3022 RMK AO2
cycle: 10

Station Type Date Time Source
KMHL TAF UTC NOAA

Error!

Example: see airport list